<?xml version="1.0" encoding="UTF-8" standalone="no" ?>
<gpx xmlns="http://www.topografix.com/GPX/1/1" xmlns:xsi="http://www.w3.org/2001/XMLSchema-instance" xsi:schemaLocation="http://www.topografix.com/GPX/1/1 http://www.topografix.com/GPX/1/1/gpx.xsd" version="1.1" creator="VisuGPX - https://www.visugpx.com">
  <metadata>
    <name>lacs et col de Pétarel en A/R</name>
    <desc><![CDATA[Parking au hameau des Portes, randonnée sur sentier.
trace approximative]]></desc>
  </metadata>
  <trk>
    <name><![CDATA[lacs et col de Pétarel en A/R_1]]></name>
    <extensions>
      <line xmlns="http://www.topografix.com/GPX/gpx_style/0/2">
        <color>0000FF</color>
        <width>4</width>
      </line>
    </extensions>
    <trkseg>
      <trkpt lat="44.81172" lon="6.19619">
        <ele>1247.74</ele>
        <time>2020-09-13T06:42:58Z</time>
      </trkpt>
      <trkpt lat="44.81118" lon="6.19568">
        <ele>1277.94</ele>
        <time>2020-09-13T06:44:12Z</time>
      </trkpt>
      <trkpt lat="44.81017" lon="6.19568">
        <ele>1273.2</ele>
      </trkpt>
      <trkpt lat="44.81044" lon="6.19499">
        <ele>1280.74</ele>
        <time>2020-09-13T06:46:36Z</time>
      </trkpt>
      <trkpt lat="44.81107" lon="6.19491">
        <ele>1292.5</ele>
        <time>2020-09-13T06:48:11Z</time>
      </trkpt>
      <trkpt lat="44.81119" lon="6.1944">
        <ele>1312.73</ele>
        <time>2020-09-13T06:50:51Z</time>
      </trkpt>
      <trkpt lat="44.81115" lon="6.19366">
        <ele>1334.54</ele>
        <time>2020-09-13T06:52:37Z</time>
      </trkpt>
      <trkpt lat="44.81164" lon="6.1931">
        <ele>1347.74</ele>
        <time>2020-09-13T06:56:24Z</time>
      </trkpt>
      <trkpt lat="44.81198" lon="6.1925">
        <ele>1357.95</ele>
        <time>2020-09-13T06:59:25Z</time>
      </trkpt>
      <trkpt lat="44.81245" lon="6.19183">
        <ele>1381.54</ele>
        <time>2020-09-13T07:00:48Z</time>
      </trkpt>
      <trkpt lat="44.81271" lon="6.19099">
        <ele>1384.92</ele>
        <time>2020-09-13T07:02:26Z</time>
      </trkpt>
      <trkpt lat="44.81298" lon="6.1903">
        <ele>1397.63</ele>
        <time>2020-09-13T07:03:46Z</time>
      </trkpt>
      <trkpt lat="44.81299" lon="6.18939">
        <ele>1427.55</ele>
        <time>2020-09-13T07:06:04Z</time>
      </trkpt>
      <trkpt lat="44.81281" lon="6.18871">
        <ele>1454.1</ele>
      </trkpt>
      <trkpt lat="44.81265" lon="6.18775">
        <ele>1457.6</ele>
      </trkpt>
      <trkpt lat="44.8122" lon="6.18689">
        <ele>1458.73</ele>
        <time>2020-09-13T07:11:28Z</time>
      </trkpt>
      <trkpt lat="44.81214" lon="6.18596">
        <ele>1464.33</ele>
        <time>2020-09-13T07:12:56Z</time>
      </trkpt>
      <trkpt lat="44.81212" lon="6.18521">
        <ele>1471.54</ele>
        <time>2020-09-13T07:13:58Z</time>
      </trkpt>
      <trkpt lat="44.81221" lon="6.18427">
        <ele>1464.74</ele>
        <time>2020-09-13T07:15:48Z</time>
      </trkpt>
      <trkpt lat="44.81254" lon="6.1836">
        <ele>1470.35</ele>
        <time>2020-09-13T07:16:56Z</time>
      </trkpt>
      <trkpt lat="44.8129" lon="6.18298">
        <ele>1476.73</ele>
        <time>2020-09-13T07:17:53Z</time>
      </trkpt>
      <trkpt lat="44.81309" lon="6.18223">
        <ele>1486.9</ele>
        <time>2020-09-13T07:19:06Z</time>
      </trkpt>
      <trkpt lat="44.81334" lon="6.18151">
        <ele>1482.74</ele>
        <time>2020-09-13T07:19:59Z</time>
      </trkpt>
      <trkpt lat="44.81316" lon="6.18064">
        <ele>1496.89</ele>
        <time>2020-09-13T07:21:15Z</time>
      </trkpt>
      <trkpt lat="44.8131" lon="6.17975">
        <ele>1512.72</ele>
        <time>2020-09-13T07:22:49Z</time>
      </trkpt>
      <trkpt lat="44.81318" lon="6.17897">
        <ele>1521.76</ele>
        <time>2020-09-13T07:24:09Z</time>
      </trkpt>
      <trkpt lat="44.81336" lon="6.17805">
        <ele>1523.74</ele>
        <time>2020-09-13T07:25:21Z</time>
      </trkpt>
      <trkpt lat="44.81317" lon="6.17726">
        <ele>1522.7</ele>
        <time>2020-09-13T07:26:37Z</time>
      </trkpt>
      <trkpt lat="44.81295" lon="6.17641">
        <ele>1520.78</ele>
        <time>2020-09-13T07:28:42Z</time>
      </trkpt>
      <trkpt lat="44.81344" lon="6.17586">
        <ele>1544.55</ele>
        <time>2020-09-13T07:30:27Z</time>
      </trkpt>
      <trkpt lat="44.81364" lon="6.17519">
        <ele>1539.73</ele>
        <time>2020-09-13T07:31:44Z</time>
      </trkpt>
      <trkpt lat="44.81376" lon="6.17435">
        <ele>1531.7</ele>
        <time>2020-09-13T07:32:44Z</time>
      </trkpt>
      <trkpt lat="44.81335" lon="6.17381">
        <ele>1523.66</ele>
        <time>2020-09-13T07:34:13Z</time>
      </trkpt>
      <trkpt lat="44.81293" lon="6.17311">
        <ele>1521.34</ele>
        <time>2020-09-13T07:35:32Z</time>
      </trkpt>
      <trkpt lat="44.8126" lon="6.17243">
        <ele>1524.69</ele>
        <time>2020-09-13T07:36:29Z</time>
      </trkpt>
      <trkpt lat="44.81234" lon="6.17162">
        <ele>1532.74</ele>
        <time>2020-09-13T07:37:39Z</time>
      </trkpt>
      <trkpt lat="44.81205" lon="6.17081">
        <ele>1537.78</ele>
        <time>2020-09-13T07:38:46Z</time>
      </trkpt>
      <trkpt lat="44.81189" lon="6.17">
        <ele>1529.53</ele>
        <time>2020-09-13T07:39:41Z</time>
      </trkpt>
      <trkpt lat="44.81163" lon="6.16913">
        <ele>1536.74</ele>
        <time>2020-09-13T07:40:59Z</time>
      </trkpt>
      <trkpt lat="44.81147" lon="6.16837">
        <ele>1548.53</ele>
        <time>2020-09-13T07:42:45Z</time>
      </trkpt>
      <trkpt lat="44.8113" lon="6.16748">
        <ele>1543.54</ele>
        <time>2020-09-13T07:43:45Z</time>
      </trkpt>
      <trkpt lat="44.81139" lon="6.16709">
        <ele>1564.8</ele>
      </trkpt>
      <trkpt lat="44.81176" lon="6.1667">
        <ele>1576.4</ele>
      </trkpt>
      <trkpt lat="44.81138" lon="6.16653">
        <ele>1579.58</ele>
        <time>2020-09-13T07:47:58Z</time>
      </trkpt>
      <trkpt lat="44.81094" lon="6.16611">
        <ele>1588.54</ele>
        <time>2020-09-13T07:49:34Z</time>
      </trkpt>
      <trkpt lat="44.81094" lon="6.16571">
        <ele>1614.71</ele>
        <time>2020-09-13T07:51:20Z</time>
      </trkpt>
      <trkpt lat="44.81036" lon="6.16547">
        <ele>1633.98</ele>
        <time>2020-09-13T07:53:11Z</time>
      </trkpt>
      <trkpt lat="44.81032" lon="6.16474">
        <ele>1653.24</ele>
        <time>2020-09-13T07:55:47Z</time>
      </trkpt>
      <trkpt lat="44.81033" lon="6.16425">
        <ele>1676.73</ele>
        <time>2020-09-13T07:57:09Z</time>
      </trkpt>
      <trkpt lat="44.81083" lon="6.16421">
        <ele>1699.9</ele>
      </trkpt>
      <trkpt lat="44.81049" lon="6.16404">
        <ele>1691.55</ele>
        <time>2020-09-13T07:59:07Z</time>
      </trkpt>
      <trkpt lat="44.81019" lon="6.16373">
        <ele>1696.9</ele>
        <time>2020-09-13T08:00:18Z</time>
      </trkpt>
      <trkpt lat="44.81062" lon="6.16351">
        <ele>1719.51</ele>
        <time>2020-09-13T08:02:15Z</time>
      </trkpt>
      <trkpt lat="44.81012" lon="6.16327">
        <ele>1749.6</ele>
      </trkpt>
      <trkpt lat="44.81051" lon="6.16298">
        <ele>1743.22</ele>
        <time>2020-09-13T08:04:45Z</time>
      </trkpt>
      <trkpt lat="44.81101" lon="6.16255">
        <ele>1754.53</ele>
        <time>2020-09-13T08:05:40Z</time>
      </trkpt>
      <trkpt lat="44.81036" lon="6.16262">
        <ele>1772.69</ele>
        <time>2020-09-13T08:07:33Z</time>
      </trkpt>
      <trkpt lat="44.80972" lon="6.16257">
        <ele>1791.73</ele>
        <time>2020-09-13T08:09:37Z</time>
      </trkpt>
      <trkpt lat="44.81017" lon="6.16194">
        <ele>1796.4</ele>
      </trkpt>
      <trkpt lat="44.80989" lon="6.16156">
        <ele>1816.93</ele>
        <time>2020-09-13T08:12:56Z</time>
      </trkpt>
      <trkpt lat="44.80939" lon="6.16192">
        <ele>1825.34</ele>
        <time>2020-09-13T08:14:41Z</time>
      </trkpt>
      <trkpt lat="44.80881" lon="6.16235">
        <ele>1841.73</ele>
        <time>2020-09-13T08:15:56Z</time>
      </trkpt>
      <trkpt lat="44.8083" lon="6.16261">
        <ele>1843.74</ele>
        <time>2020-09-13T08:17:01Z</time>
      </trkpt>
      <trkpt lat="44.80768" lon="6.16287">
        <ele>1844.54</ele>
        <time>2020-09-13T08:18:13Z</time>
      </trkpt>
      <trkpt lat="44.80713" lon="6.16339">
        <ele>1851.78</ele>
        <time>2020-09-13T08:19:39Z</time>
      </trkpt>
      <trkpt lat="44.80706" lon="6.16316">
        <ele>1851.7</ele>
        <time>2020-09-13T08:22:08Z</time>
      </trkpt>
      <trkpt lat="44.80686" lon="6.163">
        <ele>1875.74</ele>
        <time>2020-09-13T08:23:52Z</time>
      </trkpt>
      <trkpt lat="44.80677" lon="6.16262">
        <ele>1888.54</ele>
        <time>2020-09-13T08:25:22Z</time>
      </trkpt>
      <trkpt lat="44.80644" lon="6.16268">
        <ele>1906.95</ele>
        <time>2020-09-13T08:27:35Z</time>
      </trkpt>
      <trkpt lat="44.80613" lon="6.1635">
        <ele>1916.8</ele>
        <time>2020-09-13T08:29:52Z</time>
      </trkpt>
      <trkpt lat="44.80587" lon="6.16419">
        <ele>1929.74</ele>
        <time>2020-09-13T08:32:40Z</time>
      </trkpt>
      <trkpt lat="44.80557" lon="6.16499">
        <ele>1942.73</ele>
        <time>2020-09-13T08:34:52Z</time>
      </trkpt>
      <trkpt lat="44.80547" lon="6.16429">
        <ele>1960.69</ele>
        <time>2020-09-13T08:36:55Z</time>
      </trkpt>
      <trkpt lat="44.80515" lon="6.16471">
        <ele>1977.75</ele>
        <time>2020-09-13T08:39:25Z</time>
      </trkpt>
      <trkpt lat="44.80492" lon="6.16472">
        <ele>1990.58</ele>
        <time>2020-09-13T08:41:10Z</time>
      </trkpt>
      <trkpt lat="44.8049" lon="6.16399">
        <ele>1993.97</ele>
        <time>2020-09-13T08:42:40Z</time>
      </trkpt>
      <trkpt lat="44.80449" lon="6.16437">
        <ele>2008.66</ele>
        <time>2020-09-13T08:44:35Z</time>
      </trkpt>
      <trkpt lat="44.80482" lon="6.16231">
        <ele>2043.7</ele>
      </trkpt>
      <trkpt lat="44.80419" lon="6.16357">
        <ele>2054.6</ele>
      </trkpt>
      <trkpt lat="44.8034" lon="6.16475">
        <ele>2077</ele>
      </trkpt>
      <trkpt lat="44.80344" lon="6.16598">
        <ele>2072.8</ele>
      </trkpt>
      <trkpt lat="44.8027" lon="6.16633">
        <ele>2100.5</ele>
      </trkpt>
      <trkpt lat="44.80205" lon="6.16743">
        <ele>2089.95</ele>
        <time>2020-09-13T09:00:19Z</time>
      </trkpt>
      <trkpt lat="44.80181" lon="6.1675">
        <ele>2086.74</ele>
        <time>2020-09-13T09:13:15Z</time>
      </trkpt>
      <trkpt lat="44.80153" lon="6.16788">
        <ele>2100</ele>
      </trkpt>
      <trkpt lat="44.80111" lon="6.16778">
        <ele>2106.9</ele>
      </trkpt>
      <trkpt lat="44.80076" lon="6.16795">
        <ele>2109.3</ele>
      </trkpt>
      <trkpt lat="44.80017" lon="6.16808">
        <ele>2126.8</ele>
      </trkpt>
      <trkpt lat="44.79971" lon="6.16869">
        <ele>2129.3</ele>
      </trkpt>
      <trkpt lat="44.79882" lon="6.16936">
        <ele>2149.9</ele>
      </trkpt>
      <trkpt lat="44.79879" lon="6.16869">
        <ele>2165.5</ele>
      </trkpt>
      <trkpt lat="44.79799" lon="6.16893">
        <ele>2176.53</ele>
        <time>2020-09-13T10:21:01Z</time>
      </trkpt>
      <trkpt lat="44.79755" lon="6.16931">
        <ele>2201.7</ele>
        <time>2020-09-13T10:22:29Z</time>
      </trkpt>
      <trkpt lat="44.79713" lon="6.16994">
        <ele>2206.94</ele>
        <time>2020-09-13T10:24:45Z</time>
      </trkpt>
      <trkpt lat="44.79681" lon="6.16983">
        <ele>2218.92</ele>
        <time>2020-09-13T10:26:54Z</time>
      </trkpt>
      <trkpt lat="44.79657" lon="6.16912">
        <ele>2242.68</ele>
        <time>2020-09-13T10:28:55Z</time>
      </trkpt>
      <trkpt lat="44.79686" lon="6.16823">
        <ele>2260.7</ele>
      </trkpt>
      <trkpt lat="44.79655" lon="6.1681">
        <ele>2278.3</ele>
      </trkpt>
      <trkpt lat="44.79606" lon="6.16835">
        <ele>2296.3</ele>
      </trkpt>
      <trkpt lat="44.79576" lon="6.16898">
        <ele>2301.57</ele>
        <time>2020-09-13T10:36:35Z</time>
      </trkpt>
      <trkpt lat="44.79539" lon="6.16969">
        <ele>2306.98</ele>
        <time>2020-09-13T10:38:02Z</time>
      </trkpt>
      <trkpt lat="44.79506" lon="6.16998">
        <ele>2324.9</ele>
        <time>2020-09-13T10:39:52Z</time>
      </trkpt>
      <trkpt lat="44.79457" lon="6.16966">
        <ele>2328.95</ele>
        <time>2020-09-13T10:42:08Z</time>
      </trkpt>
      <trkpt lat="44.79397" lon="6.16932">
        <ele>2339.73</ele>
        <time>2020-09-13T10:43:32Z</time>
      </trkpt>
      <trkpt lat="44.79343" lon="6.16908">
        <ele>2349.3</ele>
        <time>2020-09-13T10:46:15Z</time>
      </trkpt>
      <trkpt lat="44.7928" lon="6.16878">
        <ele>2362.39</ele>
        <time>2020-09-13T10:47:36Z</time>
      </trkpt>
      <trkpt lat="44.79225" lon="6.16864">
        <ele>2361.99</ele>
        <time>2020-09-13T10:49:45Z</time>
      </trkpt>
      <trkpt lat="44.79161" lon="6.1688">
        <ele>2376.93</ele>
        <time>2020-09-13T10:51:36Z</time>
      </trkpt>
      <trkpt lat="44.7911" lon="6.16929">
        <ele>2396.75</ele>
        <time>2020-09-13T10:53:09Z</time>
      </trkpt>
      <trkpt lat="44.79085" lon="6.16939">
        <ele>2421.78</ele>
        <time>2020-09-13T10:55:15Z</time>
      </trkpt>
      <trkpt lat="44.7906" lon="6.17008">
        <ele>2437.89</ele>
        <time>2020-09-13T11:02:59Z</time>
      </trkpt>
      <trkpt lat="44.79041" lon="6.17077">
        <ele>2449.74</ele>
        <time>2020-09-13T11:05:09Z</time>
      </trkpt>
      <trkpt lat="44.78997" lon="6.17147">
        <ele>2451.73</ele>
        <time>2020-09-13T11:32:43Z</time>
      </trkpt>
      <trkpt lat="44.78964" lon="6.17229">
        <ele>2446.01</ele>
        <time>2020-09-13T11:34:20Z</time>
      </trkpt>
      <trkpt lat="44.78924" lon="6.17284">
        <ele>2443.77</ele>
        <time>2020-09-13T11:35:16Z</time>
      </trkpt>
      <trkpt lat="44.78875" lon="6.17343">
        <ele>2444.93</ele>
        <time>2020-09-13T11:37:20Z</time>
      </trkpt>
      <trkpt lat="44.78843" lon="6.17399">
        <ele>2446.1</ele>
        <time>2020-09-13T11:38:35Z</time>
      </trkpt>
      <trkpt lat="44.78789" lon="6.17442">
        <ele>2451.75</ele>
        <time>2020-09-13T11:47:31Z</time>
      </trkpt>
    </trkseg>
  </trk>
</gpx>